Decoded Metar for KBKL (CLEVELAND in OH, USA) (IATA:BKL) | Meteo·Mobile Aviation Weather
aviador You're here:

KBKL Decoded Metar

CLEVELAND in OH, USA
Report Time2019-04-23 15:53:00
UTC Time2019-04-23 16:14:50
Flight Rules vfr VFR
Wind210° at 09 kt
W.Decomp.*RWY 24: 8.3 kt HW 3.5 kt LCW
Visibility9999 m
Phenomena:N/A
Clouds:Few 050 Hf
Broken 080 Hf
Overcast 090 Hf
Expected CloudBase > 4,000 ft AGL from Temp-Dew spread
Ceiling8,000 ft
Temp21°C (ISA +7)
Dew Point11°C (53% RH)
AAT18.1°C
QNH1010 hPa
Density Alt1,722 ft
Elevation604 ft
Report Wrong Elevation
Raw Report
KBKL 231553Z 21009KT 10SM FEW050 BKN080 OVC090 21/11 A2982 RMK AO2
SLP095 T02110111=

Extra information for KBKL:More info

Metar Taf Metar & Taf Last 4 Metars F.Rules Stats Wind Profile Meteogram Temp Stats Airport Information Weather charts Add Link Nearby VenuesMetar ALERT Operation Metar Decoded Social comments

AIRNAV info for KBKL